sensor_id;sensor_type;location;lat;lon;timestamp;temperature;humidity
46784;DHT22;32544;52.832;13.816;2023-04-25T00:00:07;24.30;47.00
46784;DHT22;32544;52.832;13.816;2023-04-25T00:01:12;24.30;46.30
46784;DHT22;32544;52.832;13.816;2023-04-25T00:02:13;24.30;46.40
46784;DHT22;32544;52.832;13.816;2023-04-25T00:03:15;24.30;46.40
46784;DHT22;32544;52.832;13.816;2023-04-25T00:04:16;24.30;46.40
46784;DHT22;32544;52.832;13.816;2023-04-25T00:05:16;24.30;46.40
46784;DHT22;32544;52.832;13.816;2023-04-25T00:06:17;24.30;46.40
46784;DHT22;32544;52.832;13.816;2023-04-25T00:07:18;24.30;46.40
46784;DHT22;32544;52.832;13.816;2023-04-25T00:08:18;24.30;46.40
46784;DHT22;32544;52.832;13.816;2023-04-25T00:09:19;24.30;46.30
46784;DHT22;32544;52.832;13.816;2023-04-25T00:10:20;24.40;46.40
46784;DHT22;32544;52.832;13.816;2023-04-25T00:11:20;24.30;47.00
46784;DHT22;32544;52.832;13.816;2023-04-25T00:12:21;24.30;46.40
46784;DHT22;32544;52.832;13.816;2023-04-25T00:13:23;24.30;46.40
46784;DHT22;32544;52.832;13.816;2023-04-25T00:14:23;24.30;46.40
46784;DHT22;32544;52.832;13.816;2023-04-25T00:15:24;24.30;46.40
46784;DHT22;32544;52.832;13.816;2023-04-25T00:16:25;24.30;46.40
46784;DHT22;32544;52.832;13.816;2023-04-25T00:17:25;24.30;46.40
46784;DHT22;32544;52.832;13.816;2023-04-25T00:18:27;24.30;46.40
46784;DHT22;32544;52.832;13.816;2023-04-25T00:19:29;24.30;46.40
46784;DHT22;32544;52.832;13.816;2023-04-25T00:20:29;24.30;46.40
46784;DHT22;32544;52.832;13.816;2023-04-25T00:21:30;24.30;46.50
46784;DHT22;32544;52.832;13.816;2023-04-25T00:22:32;24.30;46.50
46784;DHT22;32544;52.832;13.816;2023-04-25T00:23:34;24.30;46.50
46784;DHT22;32544;52.832;13.816;2023-04-25T00:24:36;24.40;46.50
46784;DHT22;32544;52.832;13.816;2023-04-25T00:25:37;24.30;46.50
46784;DHT22;32544;52.832;13.816;2023-04-25T00:26:37;24.30;46.50
46784;DHT22;32544;52.832;13.816;2023-04-25T00:27:38;24.30;46.50
46784;DHT22;32544;52.832;13.816;2023-04-25T00:28:39;24.30;46.50
46784;DHT22;32544;52.832;13.816;2023-04-25T00:29:40;24.30;46.50
46784;DHT22;32544;52.832;13.816;2023-04-25T00:30:41;24.30;46.50
46784;DHT22;32544;52.832;13.816;2023-04-25T00:31:41;24.30;46.50
46784;DHT22;32544;52.832;13.816;2023-04-25T00:32:42;24.30;46.50
46784;DHT22;32544;52.832;13.816;2023-04-25T00:33:43;24.40;46.60
46784;DHT22;32544;52.832;13.816;2023-04-25T00:34:44;24.30;46.50
46784;DHT22;32544;52.832;13.816;2023-04-25T00:35:44;24.30;46.50
46784;DHT22;32544;52.832;13.816;2023-04-25T00:36:45;24.30;46.60
46784;DHT22;32544;52.832;13.816;2023-04-25T00:37:45;24.30;46.50
46784;DHT22;32544;52.832;13.816;2023-04-25T00:38:46;24.30;46.50
46784;DHT22;32544;52.832;13.816;2023-04-25T00:39:47;24.30;46.60
46784;DHT22;32544;52.832;13.816;2023-04-25T00:40:47;24.30;46.60
46784;DHT22;32544;52.832;13.816;2023-04-25T00:41:48;24.30;46.50
46784;DHT22;32544;52.832;13.816;2023-04-25T00:42:49;24.30;46.50
46784;DHT22;32544;52.832;13.816;2023-04-25T00:43:49;24.30;46.50
46784;DHT22;32544;52.832;13.816;2023-04-25T00:44:51;24.30;46.50
46784;DHT22;32544;52.832;13.816;2023-04-25T00:45:52;24.30;46.50
46784;DHT22;32544;52.832;13.816;2023-04-25T00:46:53;24.30;46.50
46784;DHT22;32544;52.832;13.816;2023-04-25T00:47:54;24.30;46.50
46784;DHT22;32544;52.832;13.816;2023-04-25T00:48:55;24.30;46.50
46784;DHT22;32544;52.832;13.816;2023-04-25T00:49:55;24.30;46.50
46784;DHT22;32544;52.832;13.816;2023-04-25T00:50:57;24.30;46.60
46784;DHT22;32544;52.832;13.816;2023-04-25T00:51:58;24.30;46.60
46784;DHT22;32544;52.832;13.816;2023-04-25T00:52:58;24.30;46.50
46784;DHT22;32544;52.832;13.816;2023-04-25T00:53:59;24.30;46.60
46784;DHT22;32544;52.832;13.816;2023-04-25T00:55:00;24.30;46.60
46784;DHT22;32544;52.832;13.816;2023-04-25T00:56:01;24.30;46.60
46784;DHT22;32544;52.832;13.816;2023-04-25T00:57:01;24.30;46.60
46784;DHT22;32544;52.832;13.816;2023-04-25T00:58:02;24.30;46.50
46784;DHT22;32544;52.832;13.816;2023-04-25T00:59:03;24.30;46.60
46784;DHT22;32544;52.832;13.816;2023-04-25T01:00:04;24.30;46.60
46784;DHT22;32544;52.832;13.816;2023-04-25T01:01:06;24.30;46.50
46784;DHT22;32544;52.832;13.816;2023-04-25T01:02:07;24.30;46.50
46784;DHT22;32544;52.832;13.816;2023-04-25T01:03:09;24.30;46.60
46784;DHT22;32544;52.832;13.816;2023-04-25T01:04:10;24.30;46.50
46784;DHT22;32544;52.832;13.816;2023-04-25T01:05:11;24.30;46.50
46784;DHT22;32544;52.832;13.816;2023-04-25T01:06:12;24.30;46.50
46784;DHT22;32544;52.832;13.816;2023-04-25T01:07:13;24.30;46.60
46784;DHT22;32544;52.832;13.816;2023-04-25T01:08:13;24.30;46.60
46784;DHT22;32544;52.832;13.816;2023-04-25T01:09:14;24.30;46.60
46784;DHT22;32544;52.832;13.816;2023-04-25T01:10:15;24.30;46.50
46784;DHT22;32544;52.832;13.816;2023-04-25T01:11:15;24.30;46.50
46784;DHT22;32544;52.832;13.816;2023-04-25T01:12:16;24.30;46.50
46784;DHT22;32544;52.832;13.816;2023-04-25T01:13:17;24.30;46.50
46784;DHT22;32544;52.832;13.816;2023-04-25T01:14:18;24.30;46.60
46784;DHT22;32544;52.832;13.816;2023-04-25T01:15:18;24.30;46.50
46784;DHT22;32544;52.832;13.816;2023-04-25T01:16:19;24.30;46.60
46784;DHT22;32544;52.832;13.816;2023-04-25T01:17:20;24.30;46.50
46784;DHT22;32544;52.832;13.816;2023-04-25T01:18:21;24.30;46.60
46784;DHT22;32544;52.832;13.816;2023-04-25T01:19:22;24.30;46.60
46784;DHT22;32544;52.832;13.816;2023-04-25T01:20:22;24.30;46.60
46784;DHT22;32544;52.832;13.816;2023-04-25T01:21:23;24.30;46.70
46784;DHT22;32544;52.832;13.816;2023-04-25T01:22:26;24.30;46.70
46784;DHT22;32544;52.832;13.816;2023-04-25T01:23:27;24.30;46.70
46784;DHT22;32544;52.832;13.816;2023-04-25T01:24:27;24.30;46.70
46784;DHT22;32544;52.832;13.816;2023-04-25T01:25:30;24.30;46.70
46784;DHT22;32544;52.832;13.816;2023-04-25T01:26:31;24.30;46.70
46784;DHT22;32544;52.832;13.816;2023-04-25T01:27:32;24.30;46.70
46784;DHT22;32544;52.832;13.816;2023-04-25T01:28:33;24.30;46.70
46784;DHT22;32544;52.832;13.816;2023-04-25T01:29:33;24.30;46.70
46784;DHT22;32544;52.832;13.816;2023-04-25T01:30:35;24.30;46.70
46784;DHT22;32544;52.832;13.816;2023-04-25T01:31:36;24.30;46.70
46784;DHT22;32544;52.832;13.816;2023-04-25T01:32:37;24.30;46.70
46784;DHT22;32544;52.832;13.816;2023-04-25T01:33:40;24.30;46.70
46784;DHT22;32544;52.832;13.816;2023-04-25T01:34:41;24.30;46.70
46784;DHT22;32544;52.832;13.816;2023-04-25T01:35:42;24.30;46.70
46784;DHT22;32544;52.832;13.816;2023-04-25T01:36:42;24.30;46.70
46784;DHT22;32544;52.832;13.816;2023-04-25T01:37:43;24.30;46.70
46784;DHT22;32544;52.832;13.816;2023-04-25T01:38:45;24.30;46.70
46784;DHT22;32544;52.832;13.816;2023-04-25T01:39:47;24.30;46.70
46784;DHT22;32544;52.832;13.816;2023-04-25T01:40:49;24.30;46.70
46784;DHT22;32544;52.832;13.816;2023-04-25T01:41:53;24.30;46.80
46784;DHT22;32544;52.832;13.816;2023-04-25T01:42:53;24.30;46.80
46784;DHT22;32544;52.832;13.816;2023-04-25T01:43:55;24.30;46.70
46784;DHT22;32544;52.832;13.816;2023-04-25T01:44:55;24.30;46.80
46784;DHT22;32544;52.832;13.816;2023-04-25T01:45:56;24.30;46.70
46784;DHT22;32544;52.832;13.816;2023-04-25T01:46:57;24.30;46.70
46784;DHT22;32544;52.832;13.816;2023-04-25T01:47:58;24.30;46.70
46784;DHT22;32544;52.832;13.816;2023-04-25T01:48:59;24.30;46.70
46784;DHT22;32544;52.832;13.816;2023-04-25T01:50:01;24.30;46.70
46784;DHT22;32544;52.832;13.816;2023-04-25T01:51:02;24.30;46.70
46784;DHT22;32544;52.832;13.816;2023-04-25T01:52:03;24.30;46.70
46784;DHT22;32544;52.832;13.816;2023-04-25T01:53:05;24.30;46.70
46784;DHT22;32544;52.832;13.816;2023-04-25T01:54:05;24.30;46.80
46784;DHT22;32544;52.832;13.816;2023-04-25T01:55:06;24.30;46.70
46784;DHT22;32544;52.832;13.816;2023-04-25T01:56:09;24.30;46.80
46784;DHT22;32544;52.832;13.816;2023-04-25T01:57:11;24.30;46.20
46784;DHT22;32544;52.832;13.816;2023-04-25T01:58:13;24.30;46.30
46784;DHT22;32544;52.832;13.816;2023-04-25T01:59:38;24.30;46.30
46784;DHT22;32544;52.832;13.816;2023-04-25T02:00:47;24.30;46.00
46784;DHT22;32544;52.832;13.816;2023-04-25T02:01:47;24.20;45.70
46784;DHT22;32544;52.832;13.816;2023-04-25T02:02:58;24.30;45.30
46784;DHT22;32544;52.832;13.816;2023-04-25T02:04:03;24.20;45.00
46784;DHT22;32544;52.832;13.816;2023-04-25T02:05:08;24.20;44.90
46784;DHT22;32544;52.832;13.816;2023-04-25T02:06:12;24.20;44.70
46784;DHT22;32544;52.832;13.816;2023-04-25T02:07:16;24.20;44.80
46784;DHT22;32544;52.832;13.816;2023-04-25T02:08:22;24.20;44.90
46784;DHT22;32544;52.832;13.816;2023-04-25T02:09:23;24.20;44.90
46784;DHT22;32544;52.832;13.816;2023-04-25T02:10:28;24.10;44.90
46784;DHT22;32544;52.832;13.816;2023-04-25T02:11:39;24.10;44.90
46784;DHT22;32544;52.832;13.816;2023-04-25T02:12:58;24.10;45.00
46784;DHT22;32544;52.832;13.816;2023-04-25T02:14:15;24.00;44.90
46784;DHT22;32544;52.832;13.816;2023-04-25T02:15:33;24.10;45.00
46784;DHT22;32544;52.832;13.816;2023-04-25T02:16:44;24.10;45.00
46784;DHT22;32544;52.832;13.816;2023-04-25T02:17:46;24.00;45.00
46784;DHT22;32544;52.832;13.816;2023-04-25T02:18:47;24.00;45.00
46784;DHT22;32544;52.832;13.816;2023-04-25T02:19:47;24.00;45.00
46784;DHT22;32544;52.832;13.816;2023-04-25T02:20:48;24.00;45.10
46784;DHT22;32544;52.832;13.816;2023-04-25T02:21:49;24.00;45.10
46784;DHT22;32544;52.832;13.816;2023-04-25T02:22:49;24.00;45.10
46784;DHT22;32544;52.832;13.816;2023-04-25T02:23:50;24.00;45.10
46784;DHT22;32544;52.832;13.816;2023-04-25T02:24:53;24.00;45.10
46784;DHT22;32544;52.832;13.816;2023-04-25T02:25:54;24.00;45.10
46784;DHT22;32544;52.832;13.816;2023-04-25T02:26:56;24.00;45.10
46784;DHT22;32544;52.832;13.816;2023-04-25T02:27:56;23.90;45.10
46784;DHT22;32544;52.832;13.816;2023-04-25T02:28:57;23.90;45.10
46784;DHT22;32544;52.832;13.816;2023-04-25T02:29:58;23.90;45.10
46784;DHT22;32544;52.832;13.816;2023-04-25T02:30:58;23.90;45.10
46784;DHT22;32544;52.832;13.816;2023-04-25T02:31:59;23.90;45.10
46784;DHT22;32544;52.832;13.816;2023-04-25T02:33:00;23.90;45.10
46784;DHT22;32544;52.832;13.816;2023-04-25T02:34:01;23.90;45.10
46784;DHT22;32544;52.832;13.816;2023-04-25T02:35:01;23.90;45.10
46784;DHT22;32544;52.832;13.816;2023-04-25T02:36:05;23.90;45.20
46784;DHT22;32544;52.832;13.816;2023-04-25T02:37:06;23.90;45.10
46784;DHT22;32544;52.832;13.816;2023-04-25T02:38:06;23.80;45.10
46784;DHT22;32544;52.832;13.816;2023-04-25T02:39:07;23.90;45.10
46784;DHT22;32544;52.832;13.816;2023-04-25T02:40:08;23.80;45.10
46784;DHT22;32544;52.832;13.816;2023-04-25T02:41:09;23.90;45.10
46784;DHT22;32544;52.832;13.816;2023-04-25T02:42:10;23.90;45.10
46784;DHT22;32544;52.832;13.816;2023-04-25T02:43:11;23.80;45.10
46784;DHT22;32544;52.832;13.816;2023-04-25T02:44:11;23.80;45.10
46784;DHT22;32544;52.832;13.816;2023-04-25T02:45:12;23.80;45.10
46784;DHT22;32544;52.832;13.816;2023-04-25T02:46:12;23.80;45.10
46784;DHT22;32544;52.832;13.816;2023-04-25T02:47:13;23.80;45.10
46784;DHT22;32544;52.832;13.816;2023-04-25T02:48:14;23.80;45.10
46784;DHT22;32544;52.832;13.816;2023-04-25T02:49:14;23.80;45.20
46784;DHT22;32544;52.832;13.816;2023-04-25T02:50:15;23.80;45.20
46784;DHT22;32544;52.832;13.816;2023-04-25T02:51:16;23.80;45.10
46784;DHT22;32544;52.832;13.816;2023-04-25T02:52:17;23.80;45.10
46784;DHT22;32544;52.832;13.816;2023-04-25T02:53:21;23.80;45.20
46784;DHT22;32544;52.832;13.816;2023-04-25T02:54:24;23.70;45.10
46784;DHT22;32544;52.832;13.816;2023-04-25T02:55:25;23.80;45.20
46784;DHT22;32544;52.832;13.816;2023-04-25T02:56:26;23.70;45.10
46784;DHT22;32544;52.832;13.816;2023-04-25T02:57:27;23.70;45.20
46784;DHT22;32544;52.832;13.816;2023-04-25T02:58:27;23.70;45.20
46784;DHT22;32544;52.832;13.816;2023-04-25T02:59:28;23.70;45.20
46784;DHT22;32544;52.832;13.816;2023-04-25T03:00:29;23.70;45.20
46784;DHT22;32544;52.832;13.816;2023-04-25T03:01:29;23.70;45.10
46784;DHT22;32544;52.832;13.816;2023-04-25T03:02:30;23.70;45.10
46784;DHT22;32544;52.832;13.816;2023-04-25T03:03:31;23.70;45.10
46784;DHT22;32544;52.832;13.816;2023-04-25T03:04:31;23.70;45.10
46784;DHT22;32544;52.832;13.816;2023-04-25T03:05:33;23.70;45.10
46784;DHT22;32544;52.832;13.816;2023-04-25T03:06:34;23.70;45.70
46784;DHT22;32544;52.832;13.816;2023-04-25T03:07:34;23.70;45.10
46784;DHT22;32544;52.832;13.816;2023-04-25T03:08:35;23.70;45.10
46784;DHT22;32544;52.832;13.816;2023-04-25T03:09:36;23.70;45.00
46784;DHT22;32544;52.832;13.816;2023-04-25T03:10:38;23.70;45.10
46784;DHT22;32544;52.832;13.816;2023-04-25T03:11:41;23.70;45.20
46784;DHT22;32544;52.832;13.816;2023-04-25T03:12:42;23.70;45.10
46784;DHT22;32544;52.832;13.816;2023-04-25T03:13:43;23.70;45.20
46784;DHT22;32544;52.832;13.816;2023-04-25T03:14:45;23.70;45.10
46784;DHT22;32544;52.832;13.816;2023-04-25T03:15:45;23.70;45.10
46784;DHT22;32544;52.832;13.816;2023-04-25T03:16:46;23.70;45.70
46784;DHT22;32544;52.832;13.816;2023-04-25T03:17:46;23.70;45.00
46784;DHT22;32544;52.832;13.816;2023-04-25T03:18:47;23.60;45.00
46784;DHT22;32544;52.832;13.816;2023-04-25T03:19:48;23.70;45.10
46784;DHT22;32544;52.832;13.816;2023-04-25T03:20:48;23.60;45.00
46784;DHT22;32544;52.832;13.816;2023-04-25T03:21:49;23.60;45.00
46784;DHT22;32544;52.832;13.816;2023-04-25T03:22:49;23.60;45.00
46784;DHT22;32544;52.832;13.816;2023-04-25T03:23:50;23.60;45.00
46784;DHT22;32544;52.832;13.816;2023-04-25T03:24:51;23.70;45.10
46784;DHT22;32544;52.832;13.816;2023-04-25T03:25:51;23.60;45.00
46784;DHT22;32544;52.832;13.816;2023-04-25T03:26:52;23.60;45.00
46784;DHT22;32544;52.832;13.816;2023-04-25T03:27:52;23.60;45.00
46784;DHT22;32544;52.832;13.816;2023-04-25T03:28:53;23.60;45.10
46784;DHT22;32544;52.832;13.816;2023-04-25T03:29:54;23.60;45.00
46784;DHT22;32544;52.832;13.816;2023-04-25T03:30:54;23.60;45.10
46784;DHT22;32544;52.832;13.816;2023-04-25T03:31:55;23.60;45.00
46784;DHT22;32544;52.832;13.816;2023-04-25T03:32:56;23.60;45.10
46784;DHT22;32544;52.832;13.816;2023-04-25T03:33:56;23.60;45.00
46784;DHT22;32544;52.832;13.816;2023-04-25T03:34:58;23.60;45.10
46784;DHT22;32544;52.832;13.816;2023-04-25T03:36:00;23.60;45.10
46784;DHT22;32544;52.832;13.816;2023-04-25T03:37:02;23.60;45.00
46784;DHT22;32544;52.832;13.816;2023-04-25T03:38:06;23.60;45.00
46784;DHT22;32544;52.832;13.816;2023-04-25T03:39:12;23.60;45.10
46784;DHT22;32544;52.832;13.816;2023-04-25T03:40:15;23.60;45.10
46784;DHT22;32544;52.832;13.816;2023-04-25T03:41:41;23.60;45.00
46784;DHT22;32544;52.832;13.816;2023-04-25T03:42:46;23.60;45.00
46784;DHT22;32544;52.832;13.816;2023-04-25T03:43:47;23.60;45.00
46784;DHT22;32544;52.832;13.816;2023-04-25T03:44:49;23.60;45.00
46784;DHT22;32544;52.832;13.816;2023-04-25T03:45:50;23.60;45.10
46784;DHT22;32544;52.832;13.816;2023-04-25T03:46:53;23.60;45.10
46784;DHT22;32544;52.832;13.816;2023-04-25T03:47:54;23.60;45.10
46784;DHT22;32544;52.832;13.816;2023-04-25T03:48:55;23.60;45.10
46784;DHT22;32544;52.832;13.816;2023-04-25T03:50:00;23.60;45.10
46784;DHT22;32544;52.832;13.816;2023-04-25T03:51:02;23.60;45.20
46784;DHT22;32544;52.832;13.816;2023-04-25T03:52:04;23.60;45.10
46784;DHT22;32544;52.832;13.816;2023-04-25T03:53:12;23.60;45.20
46784;DHT22;32544;52.832;13.816;2023-04-25T03:54:32;23.60;45.10
46784;DHT22;32544;52.832;13.816;2023-04-25T03:55:38;23.60;45.10
46784;DHT22;32544;52.832;13.816;2023-04-25T03:56:42;23.60;45.10
46784;DHT22;32544;52.832;13.816;2023-04-25T03:57:51;23.60;45.10
46784;DHT22;32544;52.832;13.816;2023-04-25T03:58:51;23.60;45.10
46784;DHT22;32544;52.832;13.816;2023-04-25T03:59:54;23.60;45.10
46784;DHT22;32544;52.832;13.816;2023-04-25T04:00:55;23.60;45.10
46784;DHT22;32544;52.832;13.816;2023-04-25T04:01:56;23.60;45.10
46784;DHT22;32544;52.832;13.816;2023-04-25T04:02:57;23.60;45.10
46784;DHT22;32544;52.832;13.816;2023-04-25T04:03:57;23.60;45.10
46784;DHT22;32544;52.832;13.816;2023-04-25T04:04:59;23.60;45.10
46784;DHT22;32544;52.832;13.816;2023-04-25T04:06:00;23.60;45.10
46784;DHT22;32544;52.832;13.816;2023-04-25T04:07:01;23.50;45.00
46784;DHT22;32544;52.832;13.816;2023-04-25T04:08:05;23.60;45.10
46784;DHT22;32544;52.832;13.816;2023-04-25T04:09:06;23.50;45.10
46784;DHT22;32544;52.832;13.816;2023-04-25T04:10:11;23.60;45.10
46784;DHT22;32544;52.832;13.816;2023-04-25T04:11:13;23.60;45.00
46784;DHT22;32544;52.832;13.816;2023-04-25T04:12:14;23.60;45.10
46784;DHT22;32544;52.832;13.816;2023-04-25T04:13:15;23.60;45.10
46784;DHT22;32544;52.832;13.816;2023-04-25T04:14:16;23.60;45.00
46784;DHT22;32544;52.832;13.816;2023-04-25T04:15:19;23.60;45.10
46784;DHT22;32544;52.832;13.816;2023-04-25T04:16:21;23.60;45.10
46784;DHT22;32544;52.832;13.816;2023-04-25T04:17:22;23.60;45.10
46784;DHT22;32544;52.832;13.816;2023-04-25T04:18:23;23.50;45.00
46784;DHT22;32544;52.832;13.816;2023-04-25T04:19:24;23.60;45.10
46784;DHT22;32544;52.832;13.816;2023-04-25T04:20:33;23.50;45.10
46784;DHT22;32544;52.832;13.816;2023-04-25T04:21:33;23.60;45.10
46784;DHT22;32544;52.832;13.816;2023-04-25T04:22:35;23.60;45.10
46784;DHT22;32544;52.832;13.816;2023-04-25T04:23:40;23.50;45.00
46784;DHT22;32544;52.832;13.816;2023-04-25T04:24:42;23.50;45.00
46784;DHT22;32544;52.832;13.816;2023-04-25T04:25:44;23.50;45.00
46784;DHT22;32544;52.832;13.816;2023-04-25T04:27:04;23.50;45.00
46784;DHT22;32544;52.832;13.816;2023-04-25T04:28:27;23.50;45.00
46784;DHT22;32544;52.832;13.816;2023-04-25T04:30:06;23.50;45.00
46784;DHT22;32544;52.832;13.816;2023-04-25T04:31:26;23.50;45.00
46784;DHT22;32544;52.832;13.816;2023-04-25T04:32:26;23.50;45.00
46784;DHT22;32544;52.832;13.816;2023-04-25T04:33:30;23.50;45.00
46784;DHT22;32544;52.832;13.816;2023-04-25T04:34:35;23.50;45.00
46784;DHT22;32544;52.832;13.816;2023-04-25T04:35:36;23.50;45.00
46784;DHT22;32544;52.832;13.816;2023-04-25T04:36:37;23.50;45.00
46784;DHT22;32544;52.832;13.816;2023-04-25T04:37:37;23.50;45.00
46784;DHT22;32544;52.832;13.816;2023-04-25T04:38:39;23.60;45.00
46784;DHT22;32544;52.832;13.816;2023-04-25T04:39:41;23.50;45.00
46784;DHT22;32544;52.832;13.816;2023-04-25T04:40:54;23.50;45.00
46784;DHT22;32544;52.832;13.816;2023-04-25T04:42:13;23.50;45.00
46784;DHT22;32544;52.832;13.816;2023-04-25T04:43:26;23.50;45.00
46784;DHT22;32544;52.832;13.816;2023-04-25T04:44:37;23.50;45.00
46784;DHT22;32544;52.832;13.816;2023-04-25T04:45:56;23.50;45.00
46784;DHT22;32544;52.832;13.816;2023-04-25T04:47:14;23.50;45.00
46784;DHT22;32544;52.832;13.816;2023-04-25T04:48:41;23.50;45.00
46784;DHT22;32544;52.832;13.816;2023-04-25T04:50:01;23.50;45.00
46784;DHT22;32544;52.832;13.816;2023-04-25T04:51:25;23.50;45.00
46784;DHT22;32544;52.832;13.816;2023-04-25T04:52:28;23.50;45.00
46784;DHT22;32544;52.832;13.816;2023-04-25T04:53:47;23.50;45.00
46784;DHT22;32544;52.832;13.816;2023-04-25T04:55:10;23.50;45.00
46784;DHT22;32544;52.832;13.816;2023-04-25T04:56:14;23.50;45.00
46784;DHT22;32544;52.832;13.816;2023-04-25T04:57:47;23.50;45.00
46784;DHT22;32544;52.832;13.816;2023-04-25T04:59:04;23.50;45.00
46784;DHT22;32544;52.832;13.816;2023-04-25T05:00:33;23.50;45.00
46784;DHT22;32544;52.832;13.816;2023-04-25T05:01:37;23.50;45.00
46784;DHT22;32544;52.832;13.816;2023-04-25T05:02:58;23.50;45.00
46784;DHT22;32544;52.832;13.816;2023-04-25T05:04:15;23.50;45.00
46784;DHT22;32544;52.832;13.816;2023-04-25T05:05:21;23.50;45.00
46784;DHT22;32544;52.832;13.816;2023-04-25T05:06:54;23.50;45.00
46784;DHT22;32544;52.832;13.816;2023-04-25T05:08:22;23.50;45.00
46784;DHT22;32544;52.832;13.816;2023-04-25T05:09:41;23.50;45.00
46784;DHT22;32544;52.832;13.816;2023-04-25T05:11:00;23.50;45.00
46784;DHT22;32544;52.832;13.816;2023-04-25T05:12:29;23.50;45.00
46784;DHT22;32544;52.832;13.816;2023-04-25T05:13:49;23.50;45.00
46784;DHT22;32544;52.832;13.816;2023-04-25T05:15:10;23.50;45.10
46784;DHT22;32544;52.832;13.816;2023-04-25T05:16:33;23.50;45.00
46784;DHT22;32544;52.832;13.816;2023-04-25T05:17:53;23.50;45.00
46784;DHT22;32544;52.832;13.816;2023-04-25T05:18:59;23.50;45.70
46784;DHT22;32544;52.832;13.816;2023-04-25T05:20:26;23.50;45.00
46784;DHT22;32544;52.832;13.816;2023-04-25T05:21:45;23.50;45.00
46784;DHT22;32544;52.832;13.816;2023-04-25T05:23:15;23.50;45.00
46784;DHT22;32544;52.832;13.816;2023-04-25T05:24:36;23.50;45.00
46784;DHT22;32544;52.832;13.816;2023-04-25T05:26:06;23.50;45.00
46784;DHT22;32544;52.832;13.816;2023-04-25T05:27:32;23.50;45.00
46784;DHT22;32544;52.832;13.816;2023-04-25T05:28:56;23.50;45.00
46784;DHT22;32544;52.832;13.816;2023-04-25T05:30:10;23.50;45.10
46784;DHT22;32544;52.832;13.816;2023-04-25T05:31:28;23.50;45.00
46784;DHT22;32544;52.832;13.816;2023-04-25T05:32:49;23.50;45.00
46784;DHT22;32544;52.832;13.816;2023-04-25T05:33:50;23.50;45.00
46784;DHT22;32544;52.832;13.816;2023-04-25T05:34:52;23.50;45.00
46784;DHT22;32544;52.832;13.816;2023-04-25T05:36:06;23.50;45.00
46784;DHT22;32544;52.832;13.816;2023-04-25T05:37:07;23.50;45.00
46784;DHT22;32544;52.832;13.816;2023-04-25T05:38:13;23.50;45.00
46784;DHT22;32544;52.832;13.816;2023-04-25T05:39:33;23.50;45.00
46784;DHT22;32544;52.832;13.816;2023-04-25T05:40:54;23.50;45.00
46784;DHT22;32544;52.832;13.816;2023-04-25T05:42:15;23.50;45.00
46784;DHT22;32544;52.832;13.816;2023-04-25T05:43:54;23.50;45.00
46784;DHT22;32544;52.832;13.816;2023-04-25T05:45:10;23.50;45.00
46784;DHT22;32544;52.832;13.816;2023-04-25T05:46:23;23.50;45.00
46784;DHT22;32544;52.832;13.816;2023-04-25T05:47:42;23.50;45.00
46784;DHT22;32544;52.832;13.816;2023-04-25T05:49:09;23.50;45.00
46784;DHT22;32544;52.832;13.816;2023-04-25T05:50:33;23.50;45.00
46784;DHT22;32544;52.832;13.816;2023-04-25T05:51:38;23.50;45.00
46784;DHT22;32544;52.832;13.816;2023-04-25T05:53:01;23.50;45.00
46784;DHT22;32544;52.832;13.816;2023-04-25T05:54:16;23.50;45.00
46784;DHT22;32544;52.832;13.816;2023-04-25T05:55:17;23.50;45.00
46784;DHT22;32544;52.832;13.816;2023-04-25T05:56:18;23.50;45.00
46784;DHT22;32544;52.832;13.816;2023-04-25T05:57:25;23.50;45.00
46784;DHT22;32544;52.832;13.816;2023-04-25T05:58:26;23.50;45.00
46784;DHT22;32544;52.832;13.816;2023-04-25T05:59:28;23.50;45.10
46784;DHT22;32544;52.832;13.816;2023-04-25T06:00:28;23.50;45.00
46784;DHT22;32544;52.832;13.816;2023-04-25T06:01:29;23.50;45.00
46784;DHT22;32544;52.832;13.816;2023-04-25T06:02:30;23.50;45.00
46784;DHT22;32544;52.832;13.816;2023-04-25T06:03:30;23.50;45.00
46784;DHT22;32544;52.832;13.816;2023-04-25T06:04:32;23.50;45.40
46784;DHT22;32544;52.832;13.816;2023-04-25T06:05:34;23.50;45.00
46784;DHT22;32544;52.832;13.816;2023-04-25T06:06:35;23.50;45.00
46784;DHT22;32544;52.832;13.816;2023-04-25T06:07:35;23.50;45.00
46784;DHT22;32544;52.832;13.816;2023-04-25T06:08:37;23.40;45.00
46784;DHT22;32544;52.832;13.816;2023-04-25T06:09:38;23.50;45.00
46784;DHT22;32544;52.832;13.816;2023-04-25T06:10:39;23.50;45.00
46784;DHT22;32544;52.832;13.816;2023-04-25T06:11:40;23.50;45.00
46784;DHT22;32544;52.832;13.816;2023-04-25T06:12:41;23.50;45.00
46784;DHT22;32544;52.832;13.816;2023-04-25T06:13:42;23.50;45.00
46784;DHT22;32544;52.832;13.816;2023-04-25T06:14:42;23.50;45.00
46784;DHT22;32544;52.832;13.816;2023-04-25T06:15:43;23.50;45.00
46784;DHT22;32544;52.832;13.816;2023-04-25T06:16:43;23.50;45.10
46784;DHT22;32544;52.832;13.816;2023-04-25T06:17:44;23.50;45.70
46784;DHT22;32544;52.832;13.816;2023-04-25T06:18:46;23.50;45.00
46784;DHT22;32544;52.832;13.816;2023-04-25T06:19:47;23.50;45.00
46784;DHT22;32544;52.832;13.816;2023-04-25T06:20:47;23.50;45.00
46784;DHT22;32544;52.832;13.816;2023-04-25T06:21:48;23.50;45.00
46784;DHT22;32544;52.832;13.816;2023-04-25T06:22:49;23.50;45.00
46784;DHT22;32544;52.832;13.816;2023-04-25T06:23:49;23.50;45.10
46784;DHT22;32544;52.832;13.816;2023-04-25T06:24:54;23.50;45.00
46784;DHT22;32544;52.832;13.816;2023-04-25T06:25:57;23.50;45.00
46784;DHT22;32544;52.832;13.816;2023-04-25T06:26:58;23.50;45.00
46784;DHT22;32544;52.832;13.816;2023-04-25T06:27:59;23.50;45.00
46784;DHT22;32544;52.832;13.816;2023-04-25T06:29:00;23.50;45.00
46784;DHT22;32544;52.832;13.816;2023-04-25T06:30:00;23.50;45.00
46784;DHT22;32544;52.832;13.816;2023-04-25T06:31:01;23.50;45.00
46784;DHT22;32544;52.832;13.816;2023-04-25T06:32:01;23.50;45.10
46784;DHT22;32544;52.832;13.816;2023-04-25T06:33:03;23.50;45.10
46784;DHT22;32544;52.832;13.816;2023-04-25T06:34:05;23.50;45.10
46784;DHT22;32544;52.832;13.816;2023-04-25T06:35:08;23.50;45.10
46784;DHT22;32544;52.832;13.816;2023-04-25T06:36:11;23.50;45.10
46784;DHT22;32544;52.832;13.816;2023-04-25T06:37:12;23.50;44.80
46784;DHT22;32544;52.832;13.816;2023-04-25T06:38:13;23.50;45.00
46784;DHT22;32544;52.832;13.816;2023-04-25T06:39:17;23.50;44.90
46784;DHT22;32544;52.832;13.816;2023-04-25T06:40:17;23.50;44.50
46784;DHT22;32544;52.832;13.816;2023-04-25T06:41:18;23.50;44.60